createdAt,value
2023-01-07T00:00:05.984Z,36.21
2023-01-07T00:00:37.530Z,36.24
2023-01-07T00:01:08.981Z,36.26
2023-01-07T00:01:40.416Z,36.11
2023-01-07T00:02:11.894Z,36.15
2023-01-07T00:02:43.331Z,36.09
2023-01-07T00:03:14.830Z,36.33
2023-01-07T00:03:46.272Z,36.21
2023-01-07T00:04:17.750Z,36.20
2023-01-07T00:04:49.208Z,36.06
2023-01-07T00:05:20.643Z,36.12
2023-01-07T00:05:52.074Z,36.08
2023-01-07T00:06:23.511Z,36.22
2023-01-07T00:06:54.911Z,36.26
2023-01-07T00:07:26.383Z,36.22
2023-01-07T00:07:57.814Z,36.27
2023-01-07T00:08:29.272Z,36.19
2023-01-07T00:09:00.657Z,36.18
2023-01-07T00:09:32.102Z,36.21
2023-01-07T00:10:03.518Z,36.11
2023-01-07T00:10:34.903Z,35.99
2023-01-07T00:11:06.362Z,36.17
2023-01-07T00:11:37.778Z,36.17
2023-01-07T00:12:09.552Z,36.26
2023-01-07T00:12:41.002Z,36.07
2023-01-07T00:13:12.460Z,36.22
2023-01-07T00:13:43.900Z,36.18
2023-01-07T00:14:15.404Z,36.19
2023-01-07T00:14:46.856Z,36.20
2023-01-07T00:15:18.308Z,36.08
2023-01-07T00:15:49.788Z,36.15
2023-01-07T00:16:21.348Z,36.25
2023-01-07T00:16:52.850Z,36.17
2023-01-07T00:17:24.332Z,36.20
2023-01-07T00:17:55.809Z,36.24
2023-01-07T00:18:27.202Z,36.16
2023-01-07T00:18:58.655Z,36.09
2023-01-07T00:19:30.071Z,36.19
2023-01-07T00:20:01.517Z,36.17
2023-01-07T00:20:32.944Z,36.22
2023-01-07T00:21:04.370Z,36.18
2023-01-07T00:21:35.822Z,36.28
2023-01-07T00:22:07.283Z,36.25
2023-01-07T00:22:41.475Z,36.13
2023-01-07T00:23:12.959Z,36.07
2023-01-07T00:23:44.361Z,36.19
2023-01-07T00:24:18.183Z,36.24
2023-01-07T00:24:49.926Z,36.22
2023-01-07T00:25:21.352Z,36.19
2023-01-07T00:25:52.781Z,36.21
2023-01-07T00:26:24.182Z,36.16
2023-01-07T00:26:55.612Z,36.20
2023-01-07T00:27:27.033Z,36.21
2023-01-07T00:27:58.478Z,36.14
2023-01-07T00:28:29.937Z,36.19
2023-01-07T00:29:01.491Z,35.99
2023-01-07T00:29:32.957Z,35.96
2023-01-07T00:30:04.454Z,36.11
2023-01-07T00:30:35.886Z,36.09
2023-01-07T00:31:07.418Z,36.24
2023-01-07T00:31:38.971Z,36.08
2023-01-07T00:32:10.475Z,36.13
2023-01-07T00:32:41.908Z,36.07
2023-01-07T00:33:13.335Z,36.15
2023-01-07T00:33:44.756Z,36.11
2023-01-07T00:34:16.143Z,36.12
2023-01-07T00:34:47.638Z,36.10
2023-01-07T00:35:19.040Z,35.96
2023-01-07T00:35:50.460Z,36.02
2023-01-07T00:36:21.887Z,36.14
2023-01-07T00:36:53.316Z,36.04
2023-01-07T00:37:24.778Z,36.08
2023-01-07T00:37:56.217Z,35.86
2023-01-07T00:38:27.636Z,36.19
2023-01-07T00:38:59.036Z,36.18
2023-01-07T00:39:30.437Z,36.02
2023-01-07T00:40:02.151Z,36.04
2023-01-07T00:40:33.581Z,36.00
2023-01-07T00:41:05.059Z,36.12
2023-01-07T00:41:36.486Z,36.11
2023-01-07T00:42:07.953Z,36.18
2023-01-07T00:42:39.376Z,36.18
2023-01-07T00:43:10.817Z,36.13
2023-01-07T00:43:42.224Z,36.03
2023-01-07T00:44:13.657Z,36.14
2023-01-07T00:44:45.091Z,36.12
2023-01-07T00:45:16.522Z,36.00
2023-01-07T00:45:47.941Z,36.17
2023-01-07T00:46:19.434Z,35.89
2023-01-07T00:46:50.969Z,36.02
2023-01-07T00:47:22.438Z,36.11
2023-01-07T00:47:53.833Z,36.09
2023-01-07T00:48:25.317Z,36.16
2023-01-07T00:48:56.779Z,36.18
2023-01-07T00:49:28.299Z,36.16
2023-01-07T00:49:59.706Z,36.00
2023-01-07T00:50:31.183Z,36.21
2023-01-07T00:51:02.751Z,36.17
2023-01-07T00:51:34.178Z,36.11
2023-01-07T00:52:05.645Z,36.10
2023-01-07T00:52:37.061Z,36.14
2023-01-07T00:53:08.527Z,36.08
2023-01-07T00:53:40.015Z,35.96
2023-01-07T00:54:11.418Z,35.89
2023-01-07T00:54:42.859Z,36.20
2023-01-07T00:55:14.285Z,36.10
2023-01-07T00:55:45.795Z,36.07
2023-01-07T00:56:17.222Z,35.97
2023-01-07T00:56:48.670Z,35.97
2023-01-07T00:57:20.114Z,36.05
2023-01-07T00:57:51.492Z,35.82
2023-01-07T00:58:22.896Z,36.12
2023-01-07T00:58:54.286Z,35.98
2023-01-07T00:59:25.695Z,36.07
2023-01-07T00:59:57.143Z,36.03
2023-01-07T01:00:28.552Z,36.04
2023-01-07T01:01:00.170Z,36.06
2023-01-07T01:01:31.742Z,36.12
2023-01-07T01:02:03.517Z,36.04
2023-01-07T01:02:35.086Z,35.98
2023-01-07T01:03:06.529Z,36.01
2023-01-07T01:03:37.945Z,36.07
2023-01-07T01:04:09.333Z,36.13
2023-01-07T01:04:40.698Z,35.99
2023-01-07T01:05:12.075Z,36.01
2023-01-07T01:05:43.567Z,36.10
2023-01-07T01:06:15.077Z,36.04
2023-01-07T01:06:46.565Z,35.99
2023-01-07T01:07:18.000Z,35.90
2023-01-07T01:07:49.425Z,36.04
2023-01-07T01:08:20.924Z,36.12
2023-01-07T01:08:52.373Z,35.99
2023-01-07T01:09:23.779Z,35.90
2023-01-07T01:09:55.188Z,36.03
2023-01-07T01:10:26.632Z,35.93
2023-01-07T01:10:58.049Z,36.05
2023-01-07T01:11:29.625Z,36.04
2023-01-07T01:12:01.087Z,35.97
2023-01-07T01:12:32.486Z,36.02
2023-01-07T01:13:04.008Z,36.02
2023-01-07T01:13:35.409Z,35.87
2023-01-07T01:14:06.852Z,36.02
2023-01-07T01:14:38.325Z,36.02
2023-01-07T01:15:09.807Z,35.98
2023-01-07T01:15:41.206Z,36.04
2023-01-07T01:16:12.633Z,36.01
2023-01-07T01:16:44.236Z,35.77
2023-01-07T01:17:15.703Z,35.86
2023-01-07T01:17:47.126Z,36.02
2023-01-07T01:18:18.551Z,36.01
2023-01-07T01:18:49.989Z,36.00
2023-01-07T01:19:21.418Z,35.95
2023-01-07T01:19:52.841Z,35.95
2023-01-07T01:20:24.245Z,36.13
2023-01-07T01:20:55.675Z,35.91
2023-01-07T01:21:27.157Z,36.01
2023-01-07T01:21:58.665Z,36.05
2023-01-07T01:22:30.115Z,36.09
2023-01-07T01:23:01.540Z,36.01
2023-01-07T01:23:33.003Z,35.92
2023-01-07T01:24:04.527Z,35.84
2023-01-07T01:24:35.957Z,35.94
2023-01-07T01:25:07.447Z,35.94
2023-01-07T01:25:38.902Z,36.16
2023-01-07T01:26:10.322Z,36.01
2023-01-07T01:26:41.744Z,35.84
2023-01-07T01:27:13.270Z,36.13
2023-01-07T01:27:44.717Z,36.00
2023-01-07T01:28:16.132Z,36.09
2023-01-07T01:28:47.647Z,35.94
2023-01-07T01:29:19.093Z,36.09
2023-01-07T01:29:50.518Z,36.02
2023-01-07T01:30:21.968Z,36.15
2023-01-07T01:30:53.463Z,36.02
2023-01-07T01:31:24.936Z,36.08
2023-01-07T01:31:56.428Z,35.90
2023-01-07T01:32:27.849Z,36.10
2023-01-07T01:32:59.269Z,36.10
2023-01-07T01:33:30.713Z,36.03
2023-01-07T01:34:02.162Z,36.07
2023-01-07T01:34:33.557Z,35.82
2023-01-07T01:35:05.136Z,36.23
2023-01-07T01:35:36.526Z,35.76
2023-01-07T01:36:08.118Z,35.97
2023-01-07T01:36:39.622Z,36.08
2023-01-07T01:37:11.037Z,35.95
2023-01-07T01:37:42.427Z,35.85
2023-01-07T01:38:13.827Z,35.96
2023-01-07T01:38:45.238Z,35.95
2023-01-07T01:39:16.630Z,36.01
2023-01-07T01:39:48.082Z,36.02
2023-01-07T01:40:19.479Z,35.94
2023-01-07T01:40:50.900Z,36.00
2023-01-07T01:41:22.381Z,35.94
2023-01-07T01:41:53.795Z,35.92
2023-01-07T01:42:25.257Z,36.01
2023-01-07T01:42:56.675Z,36.03
2023-01-07T01:43:28.181Z,35.98
2023-01-07T01:43:59.653Z,35.89
2023-01-07T01:44:31.054Z,35.84
2023-01-07T01:45:03.002Z,35.94
2023-01-07T01:45:34.505Z,35.92
2023-01-07T01:46:06.021Z,35.84
2023-01-07T01:46:37.573Z,35.93
2023-01-07T01:47:09.038Z,35.91
2023-01-07T01:47:40.527Z,36.03
2023-01-07T01:48:11.950Z,35.99
2023-01-07T01:48:43.407Z,35.99
2023-01-07T01:49:14.886Z,35.93
2023-01-07T01:49:46.313Z,35.99
2023-01-07T01:50:17.792Z,36.02
2023-01-07T01:50:49.233Z,35.90
2023-01-07T01:51:20.635Z,36.11
2023-01-07T01:51:52.142Z,35.82
2023-01-07T01:52:23.569Z,35.95
2023-01-07T01:52:55.016Z,35.92
2023-01-07T01:53:26.413Z,36.00
2023-01-07T01:53:57.839Z,35.93
2023-01-07T01:54:29.228Z,36.04
2023-01-07T01:55:00.640Z,35.84
2023-01-07T01:55:32.078Z,35.93
2023-01-07T01:56:03.467Z,36.01
2023-01-07T01:56:34.908Z,35.92
2023-01-07T01:57:06.484Z,35.84
2023-01-07T01:57:37.907Z,35.78
2023-01-07T01:58:09.411Z,35.97
2023-01-07T01:58:40.837Z,35.96
2023-01-07T01:59:12.341Z,35.90
2023-01-07T01:59:43.726Z,36.01
2023-01-07T02:00:15.191Z,35.99
2023-01-07T02:00:46.645Z,35.84
2023-01-07T02:01:18.188Z,35.82
2023-01-07T02:01:49.766Z,35.95
2023-01-07T02:02:21.259Z,35.75
2023-01-07T02:02:52.719Z,35.81
2023-01-07T02:03:24.194Z,35.76
2023-01-07T02:03:55.622Z,35.96
2023-01-07T02:04:27.064Z,35.82
2023-01-07T02:04:58.533Z,35.86
2023-01-07T02:05:29.977Z,35.93
2023-01-07T02:06:01.409Z,35.86
2023-01-07T02:06:32.822Z,35.92
2023-01-07T02:07:04.228Z,35.94
2023-01-07T02:07:35.731Z,35.70
2023-01-07T02:08:07.135Z,35.89
2023-01-07T02:08:38.585Z,35.87
2023-01-07T02:09:10.053Z,35.75
2023-01-07T02:09:41.552Z,35.98
2023-01-07T02:10:13.013Z,35.99
2023-01-07T02:10:44.428Z,35.90
2023-01-07T02:11:15.834Z,35.90
2023-01-07T02:11:47.273Z,35.97
2023-01-07T02:12:18.701Z,35.82
2023-01-07T02:12:50.126Z,35.87
2023-01-07T02:13:21.584Z,35.93
2023-01-07T02:13:52.990Z,36.01
2023-01-07T02:14:24.422Z,35.88
2023-01-07T02:14:55.904Z,35.78
2023-01-07T02:15:27.439Z,35.96
2023-01-07T02:15:58.931Z,36.02
2023-01-07T02:16:30.451Z,35.93
2023-01-07T02:17:01.871Z,35.91
2023-01-07T02:17:33.266Z,35.78
2023-01-07T02:18:04.754Z,35.94
2023-01-07T02:18:36.146Z,35.99
2023-01-07T02:19:07.608Z,35.87
2023-01-07T02:19:39.043Z,36.02
2023-01-07T02:20:10.510Z,35.90
2023-01-07T02:20:41.972Z,35.93
2023-01-07T02:21:13.389Z,35.88
2023-01-07T02:21:44.871Z,35.82
2023-01-07T02:22:16.257Z,35.97
2023-01-07T02:22:47.644Z,35.73
2023-01-07T02:23:19.033Z,35.73
2023-01-07T02:23:50.434Z,35.95
2023-01-07T02:24:21.906Z,35.66
2023-01-07T02:24:53.320Z,35.81
2023-01-07T02:25:24.737Z,35.82
2023-01-07T02:25:56.149Z,35.86
2023-01-07T02:26:27.551Z,35.87
2023-01-07T02:26:59.077Z,35.91
2023-01-07T02:27:30.628Z,35.73
2023-01-07T02:28:02.107Z,35.95
2023-01-07T02:28:33.524Z,35.90
2023-01-07T02:29:04.971Z,35.83
2023-01-07T02:29:36.387Z,35.74
2023-01-07T02:30:07.879Z,35.88
2023-01-07T02:30:39.325Z,35.73
2023-01-07T02:31:10.773Z,35.93
2023-01-07T02:31:42.226Z,35.99
2023-01-07T02:32:13.664Z,35.98
2023-01-07T02:32:45.051Z,35.79
2023-01-07T02:33:16.470Z,35.84
2023-01-07T02:33:47.885Z,35.85
2023-01-07T02:34:19.329Z,35.84
2023-01-07T02:34:50.816Z,35.77
2023-01-07T02:35:22.359Z,35.86
2023-01-07T02:35:53.781Z,35.79
2023-01-07T02:36:25.185Z,35.77
2023-01-07T02:36:56.623Z,35.68
2023-01-07T02:37:28.041Z,35.74
2023-01-07T02:37:59.470Z,35.85
2023-01-07T02:38:30.921Z,35.91
2023-01-07T02:39:02.297Z,35.83
2023-01-07T02:39:33.737Z,35.86
2023-01-07T02:40:05.173Z,35.82
2023-01-07T02:40:36.725Z,35.92
2023-01-07T02:41:08.154Z,35.85
2023-01-07T02:41:39.576Z,35.89
2023-01-07T02:42:11.016Z,35.68
2023-01-07T02:42:42.449Z,35.72
2023-01-07T02:43:13.995Z,35.93
2023-01-07T02:43:45.393Z,35.77
2023-01-07T02:44:16.852Z,35.74
2023-01-07T02:44:48.294Z,35.81
2023-01-07T02:45:19.705Z,35.78
2023-01-07T02:45:51.273Z,35.97
2023-01-07T02:46:22.745Z,35.95
2023-01-07T02:46:54.206Z,35.98
2023-01-07T02:47:25.598Z,36.01
2023-01-07T02:47:57.059Z,35.96
2023-01-07T02:48:28.519Z,35.89
2023-01-07T02:49:00.006Z,35.86
2023-01-07T02:49:31.453Z,35.86
2023-01-07T02:50:02.880Z,35.73
2023-01-07T02:50:34.300Z,35.75
2023-01-07T02:51:05.801Z,35.93
2023-01-07T02:51:37.219Z,35.83
2023-01-07T02:52:08.634Z,35.79
2023-01-07T02:52:40.093Z,35.92
2023-01-07T02:53:11.518Z,35.77
2023-01-07T02:53:42.930Z,35.70
2023-01-07T02:54:14.413Z,35.80
2023-01-07T02:54:45.821Z,35.72
2023-01-07T02:55:17.280Z,35.90
2023-01-07T02:55:48.768Z,35.70
2023-01-07T02:56:20.280Z,35.78
2023-01-07T02:56:51.752Z,35.78
2023-01-07T02:57:23.206Z,35.83
2023-01-07T02:57:54.609Z,35.74
2023-01-07T02:58:26.063Z,35.89
2023-01-07T02:58:57.467Z,35.86
2023-01-07T02:59:28.928Z,35.64
2023-01-07T03:00:00.327Z,35.79
2023-01-07T03:00:31.740Z,35.81
2023-01-07T03:01:03.267Z,35.76
2023-01-07T03:01:34.851Z,35.80
2023-01-07T03:02:06.391Z,35.79
2023-01-07T03:02:37.861Z,35.86
2023-01-07T03:03:09.284Z,35.80
2023-01-07T03:03:40.762Z,35.87
2023-01-07T03:04:12.283Z,35.87
2023-01-07T03:04:43.713Z,35.89
2023-01-07T03:05:15.200Z,35.84
2023-01-07T03:05:46.641Z,35.88
2023-01-07T03:06:18.090Z,35.64
2023-01-07T03:06:49.490Z,35.76
2023-01-07T03:07:20.911Z,35.71
2023-01-07T03:07:52.397Z,35.84
2023-01-07T03:08:23.827Z,35.87
2023-01-07T03:08:55.277Z,35.77
2023-01-07T03:09:26.683Z,35.75
2023-01-07T03:09:58.080Z,35.81
2023-01-07T03:10:29.478Z,35.73
2023-01-07T03:11:00.892Z,35.89
2023-01-07T03:11:32.297Z,35.73
2023-01-07T03:12:03.722Z,35.89
2023-01-07T03:12:35.170Z,35.84
2023-01-07T03:13:06.720Z,35.75
2023-01-07T03:13:38.146Z,35.79
2023-01-07T03:14:09.611Z,35.84
2023-01-07T03:14:41.092Z,35.81
2023-01-07T03:15:12.519Z,35.76
2023-01-07T03:15:44.000Z,35.87
2023-01-07T03:16:15.418Z,35.79
2023-01-07T03:16:46.859Z,35.76
2023-01-07T03:17:18.254Z,35.87
2023-01-07T03:17:49.647Z,35.88
2023-01-07T03:18:21.036Z,35.70
2023-01-07T03:18:52.477Z,35.71
2023-01-07T03:19:23.896Z,35.77
2023-01-07T03:19:55.383Z,35.61
2023-01-07T03:20:26.842Z,35.70
2023-01-07T03:20:58.279Z,35.74
2023-01-07T03:21:29.684Z,35.74
2023-01-07T03:22:01.106Z,35.77
2023-01-07T03:22:32.509Z,35.58
2023-01-07T03:23:03.939Z,35.75
2023-01-07T03:23:35.397Z,35.62
2023-01-07T03:24:06.846Z,35.67
2023-01-07T03:24:38.325Z,35.65
2023-01-07T03:25:09.835Z,35.64
2023-01-07T03:25:41.271Z,35.91
2023-01-07T03:26:12.687Z,35.73
2023-01-07T03:26:44.086Z,35.67
2023-01-07T03:27:15.858Z,35.65
2023-01-07T03:27:47.281Z,35.68
2023-01-07T03:28:18.708Z,35.72
2023-01-07T03:28:50.141Z,35.66
2023-01-07T03:29:21.589Z,35.73
2023-01-07T03:29:53.015Z,35.78
2023-01-07T03:30:24.446Z,35.57
2023-01-07T03:30:55.823Z,35.78
2023-01-07T03:31:27.218Z,35.68
2023-01-07T03:31:58.718Z,35.62
2023-01-07T03:32:30.243Z,35.86
2023-01-07T03:33:01.726Z,35.75
2023-01-07T03:33:33.218Z,35.69
2023-01-07T03:34:04.611Z,35.84
2023-01-07T03:34:36.059Z,35.59
2023-01-07T03:35:07.499Z,35.72
2023-01-07T03:35:38.979Z,35.87
2023-01-07T03:36:10.392Z,35.74
2023-01-07T03:36:41.829Z,35.69
2023-01-07T03:37:13.285Z,35.67
2023-01-07T03:37:44.677Z,35.59
2023-01-07T03:38:16.108Z,35.71
2023-01-07T03:38:47.547Z,35.66
2023-01-07T03:39:18.977Z,35.66
2023-01-07T03:39:50.402Z,35.64
2023-01-07T03:40:21.840Z,35.68
2023-01-07T03:40:53.316Z,35.75
2023-01-07T03:41:24.711Z,35.60
2023-01-07T03:41:56.133Z,35.69
2023-01-07T03:42:27.586Z,35.73
2023-01-07T03:42:59.060Z,35.67
2023-01-07T03:43:30.512Z,35.69
2023-01-07T03:44:01.930Z,35.71
2023-01-07T03:44:33.339Z,35.67
2023-01-07T03:45:04.784Z,35.69
2023-01-07T03:45:36.229Z,35.75
2023-01-07T03:46:07.705Z,35.61
2023-01-07T03:46:39.168Z,35.72
2023-01-07T03:47:10.575Z,35.57
2023-01-07T03:47:41.994Z,35.73
2023-01-07T03:48:13.440Z,35.89
2023-01-07T03:48:44.867Z,35.78
2023-01-07T03:49:16.265Z,35.71
2023-01-07T03:49:47.689Z,35.79
2023-01-07T03:50:19.179Z,35.72
2023-01-07T03:50:50.650Z,35.63
2023-01-07T03:51:22.089Z,35.79
2023-01-07T03:51:53.558Z,35.77
2023-01-07T03:52:25.076Z,35.78
2023-01-07T03:52:56.536Z,35.62
2023-01-07T03:53:27.938Z,35.47
2023-01-07T03:53:59.395Z,35.54
2023-01-07T03:54:30.778Z,35.64
2023-01-07T03:55:02.191Z,35.71
2023-01-07T03:55:33.673Z,35.62
2023-01-07T03:56:05.071Z,35.51
2023-01-07T03:56:36.487Z,35.49
2023-01-07T03:57:07.883Z,35.71
2023-01-07T03:57:39.328Z,35.70
2023-01-07T03:58:10.731Z,35.69
2023-01-07T03:58:42.146Z,35.51
2023-01-07T03:59:13.655Z,35.55
2023-01-07T03:59:45.087Z,35.64
2023-01-07T04:00:16.576Z,35.72
2023-01-07T04:00:48.122Z,35.75
2023-01-07T04:01:19.820Z,35.63
2023-01-07T04:01:51.479Z,35.60
2023-01-07T04:02:22.982Z,35.67
2023-01-07T04:02:54.376Z,35.61
2023-01-07T04:03:25.851Z,35.71
2023-01-07T04:03:57.284Z,35.72
2023-01-07T04:04:28.785Z,35.87
2023-01-07T04:05:00.233Z,35.69
2023-01-07T04:05:31.688Z,35.67
2023-01-07T04:06:03.157Z,35.69
2023-01-07T04:06:34.535Z,35.52
2023-01-07T04:07:05.982Z,35.80
2023-01-07T04:07:37.398Z,35.62
2023-01-07T04:08:08.807Z,35.69
2023-01-07T04:08:40.284Z,35.73
2023-01-07T04:09:11.726Z,35.82
2023-01-07T04:09:43.168Z,35.78
2023-01-07T04:10:14.588Z,35.64
2023-01-07T04:10:46.013Z,35.75
2023-01-07T04:11:17.517Z,35.61
2023-01-07T04:11:48.985Z,35.90
2023-01-07T04:12:20.431Z,35.70
2023-01-07T04:12:51.873Z,35.55
2023-01-07T04:13:23.345Z,35.67
2023-01-07T04:13:54.749Z,35.65
2023-01-07T04:14:26.224Z,35.64
2023-01-07T04:14:59.245Z,35.66
2023-01-07T04:15:30.808Z,35.85
2023-01-07T04:16:02.293Z,35.76
2023-01-07T04:16:33.805Z,35.74
2023-01-07T04:17:05.296Z,35.65
2023-01-07T04:17:36.769Z,35.75
2023-01-07T04:18:08.161Z,35.56
2023-01-07T04:18:39.551Z,35.55
2023-01-07T04:19:11.007Z,35.66
2023-01-07T04:19:42.430Z,35.65
2023-01-07T04:20:13.864Z,35.52
2023-01-07T04:20:45.314Z,35.63
2023-01-07T04:21:16.737Z,35.69
2023-01-07T04:21:48.215Z,35.67
2023-01-07T04:22:19.672Z,35.63
2023-01-07T04:22:51.088Z,35.61
2023-01-07T04:23:22.463Z,35.62
2023-01-07T04:23:54.169Z,35.56
2023-01-07T04:24:25.591Z,35.75
2023-01-07T04:24:57.024Z,35.72
2023-01-07T04:25:28.414Z,35.82
2023-01-07T04:25:59.946Z,35.84
2023-01-07T04:26:31.416Z,35.79
2023-01-07T04:27:02.845Z,35.80
2023-01-07T04:27:34.286Z,35.63
2023-01-07T04:28:05.695Z,35.72
2023-01-07T04:28:37.124Z,35.66
2023-01-07T04:29:08.581Z,35.71
2023-01-07T04:29:40.008Z,35.68
2023-01-07T04:30:11.418Z,35.72
2023-01-07T04:30:42.900Z,35.63
2023-01-07T04:31:14.366Z,35.57
2023-01-07T04:31:45.838Z,35.67
2023-01-07T04:32:17.321Z,35.72
2023-01-07T04:32:48.785Z,35.71
2023-01-07T04:33:20.200Z,35.65
2023-01-07T04:33:51.664Z,35.70
2023-01-07T04:34:23.129Z,35.77
2023-01-07T04:34:54.617Z,35.44
2023-01-07T04:35:26.053Z,35.66
2023-01-07T04:35:57.547Z,35.59
2023-01-07T04:36:28.958Z,35.58
2023-01-07T04:37:00.333Z,35.66
2023-01-07T04:37:31.785Z,35.57
2023-01-07T04:38:03.228Z,35.73
2023-01-07T04:38:34.686Z,35.69
2023-01-07T04:39:06.184Z,35.65
2023-01-07T04:39:37.584Z,35.62
2023-01-07T04:40:09.040Z,35.53
2023-01-07T04:40:40.453Z,35.54
2023-01-07T04:41:11.852Z,35.62
2023-01-07T04:41:43.289Z,35.48
2023-01-07T04:42:14.699Z,35.60
2023-01-07T04:42:46.099Z,35.72
2023-01-07T04:43:17.499Z,35.51
2023-01-07T04:43:48.976Z,35.63
2023-01-07T04:44:20.450Z,35.55
2023-01-07T04:44:51.880Z,35.73
2023-01-07T04:45:23.370Z,35.52
2023-01-07T04:45:54.930Z,35.54
2023-01-07T04:46:26.568Z,35.62
2023-01-07T04:46:58.044Z,35.66
2023-01-07T04:47:29.448Z,35.66
2023-01-07T04:48:00.887Z,35.59
2023-01-07T04:48:32.389Z,35.57
2023-01-07T04:49:03.915Z,35.54
2023-01-07T04:49:35.616Z,35.79
2023-01-07T04:50:07.079Z,35.76
2023-01-07T04:50:38.469Z,35.61
2023-01-07T04:51:09.926Z,35.69
2023-01-07T04:51:41.349Z,35.75
2023-01-07T04:52:12.749Z,35.64
2023-01-07T04:52:44.143Z,35.74
2023-01-07T04:53:15.579Z,35.70
2023-01-07T04:53:47.009Z,35.64
2023-01-07T04:54:18.412Z,35.58
2023-01-07T04:54:49.878Z,35.73
2023-01-07T04:55:21.239Z,35.66
2023-01-07T04:55:52.671Z,35.54
2023-01-07T04:56:24.058Z,35.61
2023-01-07T04:56:55.527Z,35.65
2023-01-07T04:57:26.928Z,35.67
2023-01-07T04:57:58.369Z,35.54
2023-01-07T04:58:29.815Z,35.47
2023-01-07T04:59:01.239Z,35.60
2023-01-07T04:59:32.629Z,35.48
2023-01-07T05:00:06.764Z,35.56
2023-01-07T05:00:38.165Z,35.51
2023-01-07T05:01:09.663Z,35.37
2023-01-07T05:01:41.239Z,35.65
2023-01-07T05:02:12.901Z,35.62
2023-01-07T05:02:44.353Z,35.65
2023-01-07T05:03:15.782Z,35.43
2023-01-07T05:03:47.298Z,35.63
2023-01-07T05:04:18.714Z,35.48
2023-01-07T05:04:50.272Z,35.51
2023-01-07T05:05:21.778Z,35.54
2023-01-07T05:05:53.291Z,35.53
2023-01-07T05:06:24.759Z,35.52
2023-01-07T05:06:56.265Z,35.57
2023-01-07T05:07:27.753Z,35.62
2023-01-07T05:07:59.147Z,35.42
2023-01-07T05:08:30.586Z,35.44
2023-01-07T05:09:01.984Z,35.46
2023-01-07T05:09:33.379Z,35.48
2023-01-07T05:10:04.772Z,35.63
2023-01-07T05:10:36.198Z,35.58
2023-01-07T05:11:07.639Z,35.64
2023-01-07T05:11:39.070Z,35.45
2023-01-07T05:12:10.554Z,35.63
2023-01-07T05:12:42.120Z,35.65
2023-01-07T05:13:13.541Z,35.63
2023-01-07T05:13:44.985Z,35.55
2023-01-07T05:14:16.397Z,35.57
2023-01-07T05:14:47.856Z,35.68
2023-01-07T05:15:19.283Z,35.55
2023-01-07T05:15:50.729Z,35.59
2023-01-07T05:16:22.154Z,35.70
2023-01-07T05:16:53.587Z,35.46
2023-01-07T05:17:25.058Z,35.58
2023-01-07T05:17:56.488Z,35.32
2023-01-07T05:18:27.944Z,35.63
2023-01-07T05:18:59.363Z,35.60
2023-01-07T05:19:30.776Z,35.51
2023-01-07T05:20:02.231Z,35.51
2023-01-07T05:20:33.671Z,35.50
2023-01-07T05:21:05.153Z,35.47
2023-01-07T05:21:36.611Z,35.47
2023-01-07T05:22:08.017Z,35.37
2023-01-07T05:22:39.466Z,35.44
2023-01-07T05:23:10.965Z,35.43
2023-01-07T05:23:42.384Z,35.53
2023-01-07T05:24:13.805Z,35.45
2023-01-07T05:24:45.266Z,35.48
2023-01-07T05:25:16.728Z,35.49
2023-01-07T05:25:48.164Z,35.46
2023-01-07T05:26:19.656Z,35.38
2023-01-07T05:26:51.080Z,35.39
2023-01-07T05:27:22.489Z,35.30
2023-01-07T05:27:53.913Z,35.49
2023-01-07T05:28:25.411Z,35.37
2023-01-07T05:28:56.848Z,35.45
2023-01-07T05:29:28.278Z,35.47
2023-01-07T05:29:59.684Z,35.46
2023-01-07T05:30:31.138Z,35.54
2023-01-07T05:31:02.629Z,35.48
2023-01-07T05:31:34.120Z,35.34
2023-01-07T05:32:05.552Z,35.55
2023-01-07T05:32:36.980Z,35.56
2023-01-07T05:33:08.385Z,35.37
2023-01-07T05:33:39.900Z,35.54
2023-01-07T05:34:11.306Z,35.44
2023-01-07T05:34:42.747Z,35.39
2023-01-07T05:35:14.162Z,35.44
2023-01-07T05:35:45.597Z,35.58
2023-01-07T05:36:17.055Z,35.48
2023-01-07T05:36:48.531Z,35.37
2023-01-07T05:37:19.947Z,35.51
2023-01-07T05:37:51.366Z,35.53
2023-01-07T05:38:22.815Z,35.28
2023-01-07T05:38:54.331Z,35.45
2023-01-07T05:39:25.780Z,35.38
2023-01-07T05:39:57.211Z,35.46
2023-01-07T05:40:28.654Z,35.53
2023-01-07T05:41:00.057Z,35.25
2023-01-07T05:41:31.467Z,35.46
2023-01-07T05:42:02.934Z,35.46
2023-01-07T05:42:34.496Z,35.49
2023-01-07T05:43:05.960Z,35.53
2023-01-07T05:43:37.399Z,35.37
2023-01-07T05:44:08.874Z,35.41
2023-01-07T05:44:40.347Z,35.47
2023-01-07T05:45:11.760Z,35.24
2023-01-07T05:45:43.195Z,35.34
2023-01-07T05:46:14.644Z,35.48
2023-01-07T05:46:46.086Z,35.50
2023-01-07T05:47:17.499Z,35.33
2023-01-07T05:47:48.929Z,35.33
2023-01-07T05:48:20.356Z,35.40
2023-01-07T05:48:51.861Z,35.50
2023-01-07T05:49:23.338Z,35.43
2023-01-07T05:49:54.808Z,35.41
2023-01-07T05:50:26.226Z,35.49
2023-01-07T05:50:57.677Z,35.55
2023-01-07T05:51:29.089Z,35.29
2023-01-07T05:52:00.535Z,35.44
2023-01-07T05:52:31.964Z,35.54
2023-01-07T05:53:03.410Z,35.38
2023-01-07T05:53:34.912Z,35.26
2023-01-07T05:54:06.377Z,35.47
2023-01-07T05:54:37.920Z,35.43
2023-01-07T05:55:09.340Z,35.40
2023-01-07T05:55:40.763Z,35.36
2023-01-07T05:56:12.161Z,35.40
2023-01-07T05:56:43.627Z,35.30
2023-01-07T05:57:15.087Z,35.45
2023-01-07T05:57:46.504Z,35.30
2023-01-07T05:58:17.909Z,35.32
2023-01-07T05:58:49.322Z,35.39
2023-01-07T05:59:20.736Z,35.41
2023-01-07T05:59:52.297Z,35.40
2023-01-07T06:00:23.710Z,35.21
2023-01-07T06:00:55.222Z,35.32
2023-01-07T06:01:26.645Z,35.30
2023-01-07T06:01:58.057Z,35.44
2023-01-07T06:02:29.488Z,35.22
2023-01-07T06:03:00.953Z,35.30
2023-01-07T06:03:32.534Z,35.39
2023-01-07T06:04:04.019Z,35.40
2023-01-07T06:04:35.540Z,35.23
2023-01-07T06:05:07.155Z,35.28
2023-01-07T06:05:38.717Z,35.14
2023-01-07T06:06:10.141Z,35.24
2023-01-07T06:06:41.594Z,35.12
2023-01-07T06:07:12.990Z,35.15
2023-01-07T06:07:44.428Z,35.38
2023-01-07T06:08:15.840Z,35.34
2023-01-07T06:08:47.217Z,35.34
2023-01-07T06:09:18.651Z,35.39
2023-01-07T06:09:50.119Z,35.35
2023-01-07T06:10:21.538Z,35.30
2023-01-07T06:10:52.960Z,35.40
2023-01-07T06:11:24.403Z,35.21
2023-01-07T06:11:55.854Z,35.34
2023-01-07T06:12:27.267Z,35.20
2023-01-07T06:12:58.852Z,35.38
2023-01-07T06:13:30.294Z,35.20
2023-01-07T06:14:01.697Z,35.21
2023-01-07T06:14:33.185Z,35.19
2023-01-07T06:15:04.604Z,35.14
2023-01-07T06:15:36.131Z,35.35
2023-01-07T06:16:07.739Z,35.35
2023-01-07T06:16:39.264Z,35.35
2023-01-07T06:17:10.715Z,35.31
2023-01-07T06:17:42.186Z,35.30
2023-01-07T06:18:13.675Z,35.28
2023-01-07T06:18:45.061Z,35.12
2023-01-07T06:19:16.474Z,35.17
2023-01-07T06:19:47.890Z,35.27
2023-01-07T06:20:19.310Z,35.11
2023-01-07T06:20:50.722Z,35.13
2023-01-07T06:21:22.119Z,35.22
2023-01-07T06:21:53.528Z,35.21
2023-01-07T06:22:24.923Z,35.15
2023-01-07T06:22:56.398Z,35.17
2023-01-07T06:23:27.896Z,35.33
2023-01-07T06:23:59.306Z,35.24
2023-01-07T06:24:30.776Z,35.28
2023-01-07T06:25:02.205Z,35.23
2023-01-07T06:25:33.687Z,35.24
2023-01-07T06:26:05.116Z,35.28
2023-01-07T06:26:36.541Z,35.13
2023-01-07T06:27:07.909Z,34.99
2023-01-07T06:27:39.300Z,35.14
2023-01-07T06:28:10.694Z,35.25
2023-01-07T06:28:42.179Z,35.16
2023-01-07T06:29:13.580Z,35.22
2023-01-07T06:29:44.981Z,35.07
2023-01-07T06:30:16.401Z,34.88
2023-01-07T06:30:47.879Z,35.24
2023-01-07T06:31:19.360Z,34.90
2023-01-07T06:31:50.827Z,35.18
2023-01-07T06:32:22.242Z,35.10
2023-01-07T06:32:53.662Z,35.17
2023-01-07T06:33:25.106Z,35.20
2023-01-07T06:33:56.653Z,35.24
2023-01-07T06:34:28.120Z,35.15
2023-01-07T06:34:59.524Z,35.12
2023-01-07T06:35:30.987Z,35.17
2023-01-07T06:36:02.357Z,35.16
2023-01-07T06:36:33.765Z,35.22
2023-01-07T06:37:05.169Z,35.14
2023-01-07T06:37:36.576Z,35.17
2023-01-07T06:38:08.057Z,35.25
2023-01-07T06:38:39.495Z,35.17
2023-01-07T06:39:10.955Z,35.21
2023-01-07T06:39:42.451Z,35.26
2023-01-07T06:40:13.890Z,35.06
2023-01-07T06:40:45.307Z,35.00
2023-01-07T06:41:16.711Z,35.10
2023-01-07T06:41:48.099Z,35.11
2023-01-07T06:42:19.566Z,35.08
2023-01-07T06:42:50.984Z,35.01
2023-01-07T06:43:22.389Z,35.17
2023-01-07T06:43:54.014Z,35.22
2023-01-07T06:44:25.569Z,35.04
2023-01-07T06:44:57.008Z,35.13